Neumagen-Dhron Airport EDRD

Flugplatz Daten

Name: Neumagen-Dhron Airport

Ident: EDRD

Lat: 49,84305573

Long: 6,916110992

Platzhöhe: 879 ft

IataCode:

City: Neumagen

Metar

2021/07/01 14:00
OPST 011400Z 05010KT 3500 HZ SCT040 37/19 Q0995 REDRDU TEMPO 13015G25KT 2000 DRDU RH37

Taf

Gewünschte Webcam nicht vorhanden? Dann fügen Sie eine hinzu. Sie wird dann so schnell wie möglich freigeschaltet
Url: Title: